Time;durP1;ratioP1;P1;durP2;ratioP2;P2;SDS_P1;SDS_P2;PMS_P1;PMS_P2;Temp;Humidity;BMP_temperature;BMP_pressure;BME280_temperature;BME280_humidity;BME280_pressure;Samples;Min_cycle;Max_cycle;Signal;HPM_P1;HPM_P2
2022/05/17 00:00:31;;;;;;;3.75;1.85;;;;;;;16.15;42.08;99469.19;8202135;28;20094;-72
2022/05/17 00:04:37;;;;;;;8.52;2.33;;;;;;;16.10;42.00;99471.31;8203334;28;20039;-73
2022/05/17 00:08:39;;;;;;;7.28;2.28;;;;;;;16.07;42.15;99470.06;8201733;29;20051;-73
2022/05/17 00:12:39;;;;;;;7.43;2.15;;;;;;;16.05;42.41;99464.16;8201916;29;20048;-73
2022/05/17 00:16:42;;;;;;;7.25;2.13;;;;;;;15.98;42.18;99459.25;8201712;28;20055;-73
2022/05/17 00:20:43;;;;;;;6.47;1.70;;;;;;;16.00;42.06;99461.66;8185471;29;20147;-72
2022/05/17 00:24:47;;;;;;;7.35;2.10;;;;;;;15.95;42.24;99448.22;8201761;28;20503;-73
2022/05/17 00:28:48;;;;;;;3.28;1.80;;;;;;;15.96;42.24;99455.28;8201911;28;20075;-72
2022/05/17 00:32:49;;;;;;;4.43;1.65;;;;;;;15.92;42.32;99446.97;8201691;28;20051;-72
2022/05/17 00:36:50;;;;;;;4.78;1.85;;;;;;;15.93;42.63;99439.59;8202494;28;20419;-72
2022/05/17 00:40:51;;;;;;;4.90;2.10;;;;;;;15.88;42.70;99434.34;8201388;28;20475;-73
2022/05/17 00:44:52;;;;;;;6.68;2.10;;;;;;;15.84;42.94;99430.72;8201831;28;20097;-73
2022/05/17 00:48:55;;;;;;;6.22;2.22;;;;;;;15.83;43.28;99423.69;8201269;28;20047;-73
2022/05/17 00:53:07;;;;;;;6.70;1.92;;;;;;;15.80;43.50;99437.97;8205530;28;20059;-72
2022/05/17 00:57:33;;;;;;;7.47;2.35;;;;;;;15.76;43.43;99429.66;8201109;28;20047;-73
2022/05/17 01:01:34;;;;;;;7.57;2.10;;;;;;;15.76;43.62;99435.09;8201499;28;20499;-73
2022/05/17 01:05:39;;;;;;;9.38;2.10;;;;;;;15.71;43.69;99426.34;8201281;28;20047;-72
2022/05/17 01:09:40;;;;;;;9.20;2.20;;;;;;;15.70;43.98;99430.22;8200577;28;20054;-71
2022/05/17 01:18:03;;;;;;;3.55;1.85;;;;;;;15.56;44.35;99420.41;8199457;28;20043;-72
2022/05/17 01:22:05;;;;;;;5.60;2.40;;;;;;;15.51;44.46;99420.59;8200677;28;20047;-72
2022/05/17 01:26:08;;;;;;;8.50;1.98;;;;;;;15.48;44.55;99423.97;8213644;28;20499;-73
2022/05/17 01:30:19;;;;;;;4.78;2.42;;;;;;;15.43;44.84;99426.91;8182172;28;20047;-72
2022/05/17 01:34:20;;;;;;;6.57;2.50;;;;;;;15.41;44.78;99418.25;8199474;28;20065;-72
2022/05/17 01:38:21;;;;;;;5.07;2.22;;;;;;;15.36;45.11;99415.75;8200878;28;20075;-72
2022/05/17 01:42:24;;;;;;;8.55;2.20;;;;;;;15.33;45.23;99404.72;8214657;28;20496;-73
2022/05/17 01:46:27;;;;;;;10.50;2.47;;;;;;;15.29;45.38;99407.31;8200316;28;20418;-72
2022/05/17 01:50:28;;;;;;;10.07;2.17;;;;;;;15.26;45.61;99399.81;8200582;28;20055;-73
2022/05/17 01:54:29;;;;;;;6.32;2.38;;;;;;;15.20;45.43;99401.13;8199855;28;20126;-72
2022/05/17 01:58:30;;;;;;;7.43;2.72;;;;;;;15.17;45.58;99396.38;8200353;28;20522;-72
2022/05/17 02:02:33;;;;;;;13.23;2.05;;;;;;;15.10;45.90;99396.09;8200065;28;20058;-73
2022/05/17 02:06:33;;;;;;;8.80;2.30;;;;;;;15.02;46.02;99399.66;8199164;28;20050;-72
2022/05/17 02:10:35;;;;;;;5.45;2.13;;;;;;;14.97;46.12;99403.38;8199114;28;20488;-73
2022/05/17 02:14:35;;;;;;;8.90;2.40;;;;;;;14.96;46.42;99406.44;8199854;28;20066;-73
2022/05/17 02:18:37;;;;;;;5.82;2.55;;;;;;;14.94;46.45;99397.81;8199354;28;20057;-73
2022/05/17 02:22:37;;;;;;;10.55;2.40;;;;;;;14.94;46.54;99387.72;8198929;28;20063;-72
2022/05/17 02:26:39;;;;;;;7.10;2.47;;;;;;;14.94;46.57;99392.38;8229281;28;20499;-73
2022/05/17 02:30:41;;;;;;;7.75;2.53;;;;;;;14.93;46.50;99379.91;8199535;28;20446;-71
2022/05/17 02:34:43;;;;;;;8.38;2.42;;;;;;;14.95;46.74;99383.88;8198668;28;20047;-72
2022/05/17 02:38:44;;;;;;;5.07;2.30;;;;;;;14.94;46.87;99376.06;8199364;28;20055;-72
2022/05/17 02:42:45;;;;;;;5.18;2.20;;;;;;;14.94;46.83;99382.28;8200732;28;20059;-72
2022/05/17 02:46:46;;;;;;;5.72;2.25;;;;;;;14.95;46.80;99377.66;8205224;28;20124;-72
2022/05/17 02:50:47;;;;;;;8.23;2.45;;;;;;;14.96;46.85;99384.69;8205889;28;20055;-72
2022/05/17 02:54:48;;;;;;;5.95;2.03;;;;;;;14.99;46.90;99381.28;8205303;28;20114;-74
2022/05/17 02:58:49;;;;;;;4.45;1.98;;;;;;;14.98;46.52;99387.84;8204880;28;20043;-73
2022/05/17 03:02:50;;;;;;;4.82;2.17;;;;;;;14.96;46.56;99384.69;8204866;28;20059;-71
2022/05/17 03:06:52;;;;;;;5.97;2.40;;;;;;;14.95;46.60;99388.53;8204889;28;20055;-72
2022/05/17 03:10:53;;;;;;;6.55;2.15;;;;;;;14.92;46.58;99389.16;8202931;28;20058;-72
2022/05/17 03:14:54;;;;;;;8.02;2.22;;;;;;;14.88;46.63;99388.25;8186471;28;20050;-73
2022/05/17 03:18:55;;;;;;;5.32;2.22;;;;;;;14.85;46.36;99388.91;8186770;28;20078;-72
2022/05/17 03:22:57;;;;;;;5.32;2.20;;;;;;;14.83;46.62;99391.16;8202509;28;20059;-72
2022/05/17 03:27:01;;;;;;;12.13;2.63;;;;;;;14.78;46.67;99401.09;8203353;28;20047;-71
2022/05/17 03:31:08;;;;;;;8.23;1.90;;;;;;;14.75;46.44;99412.63;8203577;28;20472;-73
2022/05/17 03:35:09;;;;;;;5.40;2.10;;;;;;;14.75;46.63;99407.19;8212960;28;20531;-72
2022/05/17 03:39:11;;;;;;;3.55;2.20;;;;;;;14.75;46.77;99401.75;8211764;28;20077;-71
2022/05/17 03:43:12;;;;;;;9.77;2.47;;;;;;;14.75;46.84;99395.53;8209734;28;20067;-72
2022/05/17 03:47:14;;;;;;;10.02;2.10;;;;;;;14.78;46.87;99400.31;8197908;28;20078;-71
2022/05/17 03:51:18;;;;;;;5.65;2.20;;;;;;;14.78;47.19;99395.66;8227715;28;20059;-72
2022/05/17 03:55:19;;;;;;;9.05;2.20;;;;;;;14.78;47.17;99406.53;8201128;28;20066;-71
2022/05/17 03:59:23;;;;;;;5.45;2.70;;;;;;;14.75;47.29;99418.06;8202776;28;20171;-71
2022/05/17 04:03:24;;;;;;;6.65;2.38;;;;;;;14.75;47.39;99412.63;8221310;28;20768;-71
2022/05/17 04:07:25;;;;;;;6.85;2.22;;;;;;;14.79;47.26;99419.03;8214102;28;20138;-71
2022/05/17 04:11:26;;;;;;;6.40;2.10;;;;;;;14.84;47.41;99414.50;8205279;28;20070;-72
2022/05/17 04:15:27;;;;;;;7.53;2.47;;;;;;;14.87;47.69;99405.69;8246937;28;20133;-72
2022/05/17 04:19:27;;;;;;;5.45;2.20;;;;;;;14.93;47.58;99409.81;8194802;28;20055;-72
2022/05/17 04:23:29;;;;;;;6.47;2.00;;;;;;;14.98;47.78;99409.63;8208321;28;20139;-71
2022/05/17 04:27:30;;;;;;;5.97;1.98;;;;;;;14.99;47.85;99412.00;8178912;28;20101;-72
2022/05/17 04:31:31;;;;;;;4.82;2.35;;;;;;;15.05;48.00;99409.91;8182307;29;20098;-71
2022/05/17 04:35:32;;;;;;;6.45;2.33;;;;;;;15.01;48.17;99408.97;8183740;28;20053;-72
2022/05/17 04:39:33;;;;;;;6.63;2.72;;;;;;;15.03;48.06;99406.69;8195914;28;20056;-71
2022/05/17 04:43:34;;;;;;;11.63;2.40;;;;;;;15.04;48.08;99419.19;8185327;28;20060;-71
2022/05/17 04:47:38;;;;;;;12.80;2.30;;;;;;;15.03;48.22;99414.84;8170532;29;20055;-71
2022/05/17 04:51:40;;;;;;;4.55;1.92;;;;;;;15.11;48.07;99414.03;8190930;28;20071;-71
2022/05/17 04:55:40;;;;;;;8.45;2.20;;;;;;;15.13;48.06;99422.63;8179190;28;20047;-72
2022/05/17 04:59:42;;;;;;;18.27;2.67;;;;;;;15.17;47.99;99412.69;8201848;28;20504;-72
2022/05/17 05:03:42;;;;;;;9.10;2.60;;;;;;;15.21;47.79;99413.63;8177304;29;20139;-72
2022/05/17 05:07:44;;;;;;;9.52;2.30;;;;;;;15.24;47.88;99418.38;8201220;28;20060;-71
2022/05/17 05:11:45;;;;;;;12.35;2.65;;;;;;;15.33;48.10;99427.31;8185445;28;20492;-72
2022/05/17 05:15:46;;;;;;;7.32;2.53;;;;;;;15.39;47.94;99425.94;8201575;28;20055;-72
2022/05/17 05:19:47;;;;;;;12.30;2.45;;;;;;;15.49;47.75;99425.53;8201277;28;20079;-73
2022/05/17 05:23:54;;;;;;;6.05;2.40;;;;;;;15.55;47.73;99418.81;8199341;28;20054;-72
2022/05/17 05:27:55;;;;;;;7.95;2.63;;;;;;;15.60;47.86;99424.03;8200745;28;20114;-71
2022/05/17 05:31:56;;;;;;;13.48;2.70;;;;;;;15.65;47.84;99422.25;8194985;29;20456;-72
2022/05/17 05:35:57;;;;;;;5.97;2.40;;;;;;;15.74;47.87;99425.69;8173620;29;20324;-73
2022/05/17 05:39:59;;;;;;;7.25;2.40;;;;;;;15.88;47.85;99426.19;8170457;28;20143;-71
2022/05/17 05:44:02;;;;;;;6.88;2.20;;;;;;;16.02;47.39;99432.16;8179065;28;20050;-72
2022/05/17 05:48:04;;;;;;;10.50;2.67;;;;;;;16.12;47.53;99426.28;8197510;28;20047;-73
2022/05/17 05:52:06;;;;;;;7.85;2.67;;;;;;;16.23;47.40;99438.31;8182844;29;20538;-72
2022/05/17 05:56:07;;;;;;;11.40;2.90;;;;;;;16.20;47.45;99444.44;8218842;28;20044;-71
2022/05/17 06:00:08;;;;;;;10.13;2.60;;;;;;;16.23;47.63;99449.19;8213601;28;20071;-72
2022/05/17 06:04:09;;;;;;;11.93;2.33;;;;;;;16.24;47.59;99445.34;8188686;28;20902;-73
2022/05/17 06:08:14;;;;;;;6.45;2.58;;;;;;;16.30;47.74;99460.34;8173421;29;20067;-72
2022/05/17 06:12:15;;;;;;;7.80;2.30;;;;;;;16.36;47.62;99464.47;8174938;29;20059;-72
2022/05/17 06:16:18;;;;;;;12.98;2.38;;;;;;;16.42;47.77;99476.75;8181219;28;20051;-71
2022/05/17 06:20:19;;;;;;;9.05;2.25;;;;;;;16.46;47.29;99474.91;8179499;29;20070;-72
2022/05/17 06:24:20;;;;;;;12.60;2.20;;;;;;;16.58;47.42;99476.06;8188585;29;20047;-73
2022/05/17 06:28:21;;;;;;;6.50;2.42;;;;;;;16.65;47.69;99468.16;8206423;28;20047;-72
2022/05/17 06:32:22;;;;;;;9.70;2.50;;;;;;;16.77;47.56;99468.16;8220052;28;20055;-72
2022/05/17 06:36:23;;;;;;;9.35;2.58;;;;;;;16.95;47.33;99469.53;8206418;28;20484;-73
2022/05/17 06:40:24;;;;;;;9.02;2.88;;;;;;;17.06;47.08;99476.13;8205610;28;20082;-72
2022/05/17 06:44:26;;;;;;;14.40;2.60;;;;;;;17.18;46.90;99478.06;8203665;29;20054;-72
2022/05/17 06:48:28;;;;;;;12.32;3.55;;;;;;;17.36;47.10;99479.38;8205316;28;20415;-72
2022/05/17 06:52:29;;;;;;;28.77;3.30;;;;;;;17.55;47.02;99476.03;8205360;28;20506;-72
2022/05/17 06:56:34;;;;;;;12.75;3.38;;;;;;;17.69;46.34;99481.94;8205410;28;20102;-71
2022/05/17 07:00:35;;;;;;;16.85;2.88;;;;;;;17.86;46.87;99487.13;8203600;28;20260;-72
2022/05/17 07:04:36;;;;;;;6.93;2.20;;;;;;;17.99;46.54;99472.25;8219228;28;20055;-73
2022/05/17 07:08:37;;;;;;;9.50;2.53;;;;;;;18.15;46.72;99472.28;8219836;28;20415;-72
2022/05/17 07:16:58;;;;;;;9.43;2.63;;;;;;;18.47;46.55;99470.38;8204881;29;20047;-73
2022/05/17 07:20:59;;;;;;;18.83;2.65;;;;;;;18.47;46.26;99479.38;8203094;28;20106;-72
2022/05/17 07:25:00;;;;;;;9.73;2.40;;;;;;;18.54;46.48;99473.34;8204622;28;20057;-71
2022/05/17 07:29:01;;;;;;;9.85;3.33;;;;;;;18.67;45.74;99469.34;8202247;28;20047;-71
2022/05/17 07:33:02;;;;;;;11.32;2.45;;;;;;;18.73;45.97;99476.16;8202089;28;20055;-72
2022/05/17 07:37:04;;;;;;;7.53;2.70;;;;;;;18.82;45.70;99484.97;8204383;28;20070;-72
2022/05/17 07:41:05;;;;;;;8.23;2.50;;;;;;;18.85;45.48;99478.81;8218090;28;20078;-72
2022/05/17 07:45:10;;;;;;;8.30;2.78;;;;;;;18.94;45.42;99490.34;8204267;28;20052;-71
2022/05/17 07:49:11;;;;;;;8.32;3.05;;;;;;;18.96;45.43;99490.81;8217698;28;20057;-71
2022/05/17 07:53:14;;;;;;;7.90;2.33;;;;;;;19.05;45.44;99498.03;8202437;28;20054;-72
2022/05/17 07:57:15;;;;;;;7.00;2.53;;;;;;;19.13;45.54;99499.78;8203880;28;20047;-71
2022/05/17 08:01:19;;;;;;;6.35;2.38;;;;;;;19.32;45.21;99497.09;8203635;28;20093;-72
2022/05/17 08:05:20;;;;;;;6.55;2.50;;;;;;;19.48;44.81;99508.81;8203716;28;20066;-72
2022/05/17 08:09:21;;;;;;;11.55;2.85;;;;;;;19.74;45.19;99498.03;8203293;28;20047;-72
2022/05/17 08:13:23;;;;;;;8.18;2.67;;;;;;;19.71;45.01;99511.69;8202486;28;20102;-72
2022/05/17 08:17:24;;;;;;;9.05;2.65;;;;;;;19.52;44.82;99523.38;8203415;28;20055;-74
2022/05/17 08:21:25;;;;;;;11.88;3.08;;;;;;;19.35;45.56;99529.25;8193902;28;20051;-72
2022/05/17 08:29:46;;;;;;;6.90;2.97;;;;;;;19.07;47.31;99540.31;8202945;29;20048;-73
2022/05/17 08:33:49;;;;;;;8.30;3.08;;;;;;;19.10;47.51;99538.81;8202678;28;20051;-73
2022/05/17 08:37:50;;;;;;;11.98;3.20;;;;;;;19.22;47.30;99546.94;8214160;28;20159;-72
2022/05/17 08:41:54;;;;;;;13.32;3.30;;;;;;;19.47;47.28;99551.06;8204864;28;20055;-72
2022/05/17 08:46:04;;;;;;;11.70;3.13;;;;;;;19.66;47.45;99551.13;8214842;28;20055;-72
2022/05/17 08:50:08;;;;;;;7.25;2.83;;;;;;;19.71;47.23;99542.63;8202681;28;20055;-72
2022/05/17 08:54:14;;;;;;;8.88;3.08;;;;;;;19.71;47.24;99545.34;8231953;28;20522;-72
2022/05/17 08:58:18;;;;;;;13.98;3.05;;;;;;;19.57;47.49;99536.81;8201161;28;20051;-72
2022/05/17 09:02:31;;;;;;;8.77;3.22;;;;;;;19.46;47.45;99552.22;8202166;28;20055;-72
2022/05/17 09:06:41;;;;;;;21.60;3.95;;;;;;;19.33;47.92;99553.44;8202092;28;20507;-72
2022/05/17 09:11:20;;;;;;;5.25;2.83;;;;;;;19.33;48.09;99558.94;8200753;28;20458;-73
2022/05/17 09:15:23;;;;;;;9.35;2.88;;;;;;;19.30;47.84;99567.84;8200927;28;20066;-73
2022/05/17 09:19:25;;;;;;;9.60;3.53;;;;;;;19.24;47.68;99566.53;8193070;28;20060;-72
2022/05/17 09:23:26;;;;;;;12.25;3.30;;;;;;;19.21;48.00;99561.75;8173644;29;20129;-72
2022/05/17 09:27:33;;;;;;;9.43;3.20;;;;;;;19.26;48.06;99564.22;8201199;28;20392;-72
2022/05/17 09:31:36;;;;;;;14.65;3.17;;;;;;;19.34;47.85;99571.47;8200881;28;20067;-73
2022/05/17 09:35:57;;;;;;;11.10;3.05;;;;;;;19.30;47.73;99576.06;8201545;28;20498;-74
2022/05/17 09:39:58;;;;;;;12.70;3.08;;;;;;;19.24;47.42;99577.50;8201126;28;20577;-72
2022/05/17 09:44:21;;;;;;;15.13;3.45;;;;;;;19.20;47.48;99576.59;8201326;28;20051;-72
2022/05/17 09:53:14;;;;;;;9.55;3.20;;;;;;;19.08;47.15;99568.50;8200841;28;20157;-72
2022/05/17 09:57:15;;;;;;;9.55;2.67;;;;;;;19.10;47.02;99571.66;8214852;28;20136;-72
2022/05/17 10:01:28;;;;;;;13.68;2.80;;;;;;;19.09;46.49;99572.81;8215423;28;20094;-73
2022/05/17 10:05:40;;;;;;;6.38;3.10;;;;;;;18.97;45.95;99569.03;8199386;29;20507;-73
2022/05/17 10:09:44;;;;;;;11.50;2.63;;;;;;;18.89;46.30;99578.19;8200518;28;20054;-73
2022/05/17 10:13:51;;;;;;;9.13;2.70;;;;;;;18.88;46.10;99573.84;8200305;28;20127;-72
2022/05/17 10:17:56;;;;;;;8.75;2.22;;;;;;;18.85;45.66;99571.84;8198196;28;20134;-71
2022/05/17 10:22:15;;;;;;;8.68;2.28;;;;;;;18.88;46.03;99576.59;8200226;28;20055;-72
2022/05/17 10:26:26;;;;;;;8.88;2.97;;;;;;;18.85;45.92;99582.78;8198744;29;20130;-73
2022/05/17 10:30:48;;;;;;;6.45;2.45;;;;;;;18.82;46.09;99583.47;8198712;28;20047;-72
2022/05/17 10:34:57;;;;;;;8.85;3.00;;;;;;;18.73;46.26;99588.31;8198839;28;20047;-72
2022/05/17 10:39:33;;;;;;;9.03;2.57;;;;;;;18.77;46.77;99586.47;8200277;28;20063;-73
2022/05/17 10:43:39;;;;;;;9.95;3.03;;;;;;;18.76;46.90;99590.38;8199961;28;20535;-72
2022/05/17 10:47:49;;;;;;;9.50;3.15;;;;;;;18.66;47.33;99601.84;8197597;28;20055;-72
2022/05/17 10:52:05;;;;;;;7.80;3.15;;;;;;;18.52;47.72;99601.41;8214818;28;20047;-72
2022/05/17 10:56:28;;;;;;;9.45;3.38;;;;;;;18.46;47.94;99602.78;8199721;28;20106;-72
2022/05/17 11:00:33;;;;;;;11.07;3.28;;;;;;;18.41;47.63;99608.50;8199529;28;20132;-73
2022/05/17 11:05:02;;;;;;;7.85;3.08;;;;;;;18.38;47.70;99607.28;8216847;28;20466;-73
2022/05/17 11:09:03;;;;;;;28.33;3.72;;;;;;;18.32;47.74;99624.28;8220353;28;20406;-73
2022/05/17 11:13:29;;;;;;;5.28;3.03;;;;;;;18.32;47.22;99629.75;8205506;28;20427;-72
2022/05/17 11:17:51;;;;;;;13.77;3.10;;;;;;;18.33;47.19;99625.88;8219134;28;20211;-72
2022/05/17 11:21:58;;;;;;;9.38;3.45;;;;;;;18.31;47.12;99622.69;8205422;28;20091;-72
2022/05/17 11:26:08;;;;;;;6.40;2.50;;;;;;;18.38;47.45;99622.88;8203928;29;20506;-74
2022/05/17 11:30:13;;;;;;;11.43;3.10;;;;;;;18.41;49.04;99622.19;8204938;28;20463;-72
2022/05/17 11:34:41;;;;;;;9.60;3.28;;;;;;;18.37;48.83;99621.28;8218883;28;20051;-73
2022/05/17 11:38:51;;;;;;;16.35;3.17;;;;;;;18.34;47.92;99622.81;8200611;28;20147;-72
2022/05/17 11:47:29;;;;;;;15.13;2.88;;;;;;;18.80;47.57;99623.28;8152761;29;20051;-73
2022/05/17 11:51:55;;;;;;;14.98;3.67;;;;;;;18.99;47.94;99632.41;8200515;29;20484;-73
2022/05/17 11:56:28;;;;;;;15.85;3.60;;;;;;;19.21;47.51;99644.69;8105789;29;20142;-73
2022/05/17 12:00:35;;;;;;;9.23;3.35;;;;;;;19.36;46.28;99640.38;8106110;29;20524;-74
2022/05/17 12:04:42;;;;;;;17.48;3.63;;;;;;;19.54;45.92;99640.84;8105784;29;20544;-75
2022/05/17 12:08:43;;;;;;;17.42;3.72;;;;;;;19.69;45.42;99638.06;8103571;29;20044;-74
2022/05/17 12:12:54;;;;;;;11.25;3.63;;;;;;;19.77;44.95;99648.03;8085209;29;20063;-72
2022/05/17 12:17:04;;;;;;;11.70;3.67;;;;;;;19.91;44.72;99655.00;8104210;29;20533;-73
2022/05/17 12:21:28;;;;;;;11.73;3.30;;;;;;;20.22;43.98;99643.94;8111147;29;20055;-73
2022/05/17 12:25:44;;;;;;;17.33;4.20;;;;;;;20.37;44.10;99645.84;8120083;29;20072;-74
2022/05/17 12:34:29;;;;;;;11.38;2.95;;;;;;;20.49;43.73;99648.47;8167178;29;20052;-74
2022/05/17 12:43:07;;;;;;;16.38;3.50;;;;;;;20.75;43.53;99638.75;8167087;29;20048;-74
2022/05/17 12:47:11;;;;;;;11.50;3.90;;;;;;;20.79;43.34;99645.09;8120149;29;20135;-73
2022/05/17 12:51:12;;;;;;;10.70;3.42;;;;;;;20.84;43.09;99647.53;8135486;29;20048;-73
2022/05/17 12:55:18;;;;;;;17.50;3.53;;;;;;;20.83;42.84;99663.22;8135829;29;20052;-74
2022/05/17 12:59:30;;;;;;;9.40;3.20;;;;;;;21.08;42.47;99658.22;8103927;29;20056;-73
2022/05/17 13:03:33;;;;;;;8.52;3.33;;;;;;;21.21;41.56;99656.88;8135469;29;20052;-73
2022/05/17 13:07:36;;;;;;;15.35;3.13;;;;;;;21.24;41.57;99656.16;8135069;29;20071;-73
2022/05/17 13:11:38;;;;;;;17.95;3.33;;;;;;;21.53;41.17;99662.13;8174795;28;20054;-74
2022/05/17 13:15:40;;;;;;;12.35;3.28;;;;;;;21.99;41.37;99663.69;8201700;28;20094;-73
2022/05/17 13:19:41;;;;;;;7.10;2.90;;;;;;;22.15;40.18;99667.03;8199490;28;20511;-74
2022/05/17 13:23:48;;;;;;;10.75;2.83;;;;;;;22.15;40.18;99667.03;8201781;28;20039;-74
2022/05/17 13:27:53;;;;;;;7.20;2.50;;;;;;;22.00;39.64;99654.22;8200399;28;20419;-74
2022/05/17 13:32:06;;;;;;;14.38;2.92;;;;;;;21.86;39.60;99670.50;8201195;28;20537;-74
2022/05/17 13:36:09;;;;;;;8.52;2.30;;;;;;;21.77;39.60;99678.22;8214079;28;20055;-73
2022/05/17 13:40:10;;;;;;;11.77;2.75;;;;;;;21.57;38.89;99668.50;8183922;28;20055;-73
2022/05/17 13:44:44;;;;;;;6.75;2.17;;;;;;;21.37;38.71;99674.03;8195431;28;20106;-73
2022/05/17 13:48:48;;;;;;;6.43;2.53;;;;;;;21.24;39.47;99667.16;8200007;28;20057;-73
2022/05/17 13:52:49;;;;;;;11.48;2.70;;;;;;;21.17;39.48;99672.53;8200224;28;20055;-75
2022/05/17 13:56:55;;;;;;;9.18;2.28;;;;;;;20.81;39.13;99675.75;8214148;28;20055;-73
2022/05/17 14:01:28;;;;;;;8.40;2.63;;;;;;;20.93;39.60;99683.81;8182390;28;20047;-74
2022/05/17 14:05:35;;;;;;;5.32;2.22;;;;;;;21.07;39.24;99678.59;8132474;29;20084;-73
2022/05/17 14:13:55;;;;;;;8.07;2.90;;;;;;;21.06;38.56;99682.47;8119394;29;20541;-72
2022/05/17 14:17:56;;;;;;;9.52;2.85;;;;;;;21.16;38.12;99679.16;8132305;29;20059;-73
2022/05/17 14:22:00;;;;;;;11.13;2.53;;;;;;;21.01;38.11;99685.53;8095860;29;20111;-73
2022/05/17 14:26:02;;;;;;;4.13;2.10;;;;;;;20.94;38.03;99685.38;8100715;29;20079;-73
2022/05/17 14:30:04;;;;;;;8.00;2.78;;;;;;;20.76;37.79;99684.28;8132588;29;20044;-73
2022/05/17 14:34:11;;;;;;;8.20;2.20;;;;;;;20.52;38.25;99696.31;8132318;29;20405;-74
2022/05/17 14:38:12;;;;;;;7.57;2.22;;;;;;;20.34;38.48;99695.97;8107587;29;20060;-73
2022/05/17 14:42:13;;;;;;;4.85;2.00;;;;;;;20.26;38.51;99699.66;8182667;29;20086;-73
2022/05/17 14:46:16;;;;;;;5.65;1.95;;;;;;;20.44;38.35;99700.88;8205408;28;20055;-73
2022/05/17 14:50:20;;;;;;;16.00;2.00;;;;;;;21.55;36.68;99698.28;8204548;28;20048;-74
2022/05/17 14:54:21;;;;;;;3.38;1.85;;;;;;;22.41;34.25;99701.19;8205114;28;20066;-73
2022/05/17 14:58:22;;;;;;;4.00;1.63;;;;;;;21.89;35.21;99702.75;8206252;28;20052;-74
2022/05/17 15:02:23;;;;;;;14.57;1.85;;;;;;;21.48;34.52;99705.25;8231922;28;20434;-73
2022/05/17 15:06:25;;;;;;;5.55;1.50;;;;;;;21.24;34.07;99705.63;8234566;28;20086;-72
2022/05/17 15:10:28;;;;;;;5.53;1.80;;;;;;;21.31;34.39;99704.94;8237399;28;20133;-73
2022/05/17 15:14:29;;;;;;;13.90;1.63;;;;;;;21.32;34.40;99707.31;8237372;28;20051;-72
2022/05/17 15:18:35;;;;;;;3.97;1.33;;;;;;;22.42;33.44;99702.78;8251387;28;20146;-72
2022/05/17 15:22:40;;;;;;;6.93;1.63;;;;;;;23.32;31.95;99700.69;8235342;28;20042;-74
2022/05/17 15:26:42;;;;;;;4.45;1.40;;;;;;;23.66;31.33;99699.41;8214068;28;20130;-74
2022/05/17 15:30:43;;;;;;;6.68;1.83;;;;;;;23.61;31.36;99697.03;8204270;28;20066;-73
2022/05/17 15:34:44;;;;;;;5.03;1.38;;;;;;;23.34;31.16;99698.31;8213060;28;20043;-73
2022/05/17 15:38:46;;;;;;;7.63;1.60;;;;;;;23.47;31.64;99702.41;8195937;28;20153;-73
2022/05/17 15:42:48;;;;;;;5.03;1.40;;;;;;;23.91;30.44;99705.91;8215037;28;20415;-73
2022/05/17 15:55:54;;;;;;;2.65;1.20;;;;;;;22.01;31.65;99705.31;8175425;28;20132;-73
2022/05/17 15:59:55;;;;;;;2.03;1.10;;;;;;;21.80;31.40;99707.72;8200383;28;20507;-72
2022/05/17 16:08:24;;;;;;;3.10;1.00;;;;;;;21.75;31.99;99697.03;8201295;28;20051;-73
2022/05/17 16:12:27;;;;;;;2.38;1.13;;;;;;;21.49;31.98;99701.34;8219309;28;20043;-72
2022/05/17 16:16:28;;;;;;;3.40;1.13;;;;;;;21.53;32.23;99703.34;8199510;29;20059;-73
2022/05/17 16:20:33;;;;;;;13.98;1.08;;;;;;;22.27;31.32;99707.28;8198963;29;20579;-73
2022/05/17 16:24:35;;;;;;;2.75;1.30;;;;;;;21.93;31.61;99703.63;8204050;28;20053;-73
2022/05/17 16:28:36;;;;;;;4.47;1.30;;;;;;;21.36;32.50;99699.91;8207459;28;20067;-73
2022/05/17 16:32:38;;;;;;;7.93;1.40;;;;;;;21.04;33.27;99698.53;8172008;29;20055;-73
2022/05/17 16:36:40;;;;;;;2.92;1.67;;;;;;;21.14;33.13;99689.75;8200260;28;20447;-74
2022/05/17 16:40:42;;;;;;;3.42;1.33;;;;;;;21.40;32.60;99702.75;8200483;28;20055;-73
2022/05/17 16:44:43;;;;;;;5.45;1.10;;;;;;;20.95;33.55;99697.97;8203281;28;20062;-73
2022/05/17 16:48:44;;;;;;;6.15;1.40;;;;;;;20.42;34.26;99697.69;8202545;28;20105;-72
2022/05/17 16:52:45;;;;;;;2.80;1.30;;;;;;;20.05;34.68;99699.19;8215450;28;20514;-72
2022/05/17 16:56:46;;;;;;;4.00;1.38;;;;;;;19.87;34.94;99709.75;8204406;28;20039;-73
2022/05/17 17:00:47;;;;;;;11.93;1.30;;;;;;;19.72;34.85;99703.13;8204699;28;20110;-74
2022/05/17 17:04:48;;;;;;;4.20;1.50;;;;;;;19.52;35.24;99698.72;8201407;28;20372;-73
2022/05/17 17:08:49;;;;;;;14.13;1.58;;;;;;;19.34;35.86;99697.44;8201745;28;20990;-73
2022/05/17 17:12:50;;;;;;;4.50;1.48;;;;;;;19.18;37.00;99699.38;8201914;28;20047;-75
2022/05/17 17:16:51;;;;;;;5.90;1.55;;;;;;;18.95;37.63;99704.63;8201155;28;20499;-74
2022/05/17 17:20:54;;;;;;;9.32;1.52;;;;;;;18.77;38.44;99706.84;8200143;28;20055;-72
2022/05/17 17:24:55;;;;;;;4.35;1.23;;;;;;;18.70;38.08;99709.41;8201069;28;20069;-73
2022/05/17 17:28:57;;;;;;;3.70;1.25;;;;;;;18.60;38.68;99711.84;8201150;28;20050;-73
2022/05/17 17:37:26;;;;;;;8.57;1.45;;;;;;;18.18;40.53;99722.28;8212844;28;20406;-73
2022/05/17 17:41:27;;;;;;;5.03;1.60;;;;;;;17.93;41.68;99721.50;8200296;28;20511;-73
2022/05/17 17:45:28;;;;;;;6.30;1.48;;;;;;;17.72;42.19;99732.53;8182087;29;20091;-72
2022/05/17 17:49:29;;;;;;;4.88;1.40;;;;;;;17.50;43.37;99724.78;8198039;28;20110;-73
2022/05/17 17:53:34;;;;;;;3.95;1.80;;;;;;;17.31;43.79;99712.44;8198969;28;20062;-73
2022/05/17 17:57:38;;;;;;;2.15;1.27;;;;;;;17.16;44.89;99726.75;8197117;29;20074;-73
2022/05/17 18:01:39;;;;;;;2.92;1.50;;;;;;;16.98;45.56;99725.31;8196312;28;20059;-73
2022/05/17 18:05:40;;;;;;;8.23;1.60;;;;;;;16.78;46.41;99737.06;8193655;28;20495;-74
2022/05/17 18:09:41;;;;;;;2.22;1.40;;;;;;;16.57;47.37;99741.69;8199849;28;20690;-72
2022/05/17 18:13:45;;;;;;;5.95;1.45;;;;;;;16.33;48.29;99748.59;8197712;28;20357;-72
2022/05/17 18:17:46;;;;;;;9.27;1.52;;;;;;;16.08;48.82;99757.72;8214201;28;20051;-72
2022/05/17 18:21:47;;;;;;;9.77;2.63;;;;;;;15.86;49.35;99763.47;8199969;28;20150;-72
2022/05/17 18:25:50;;;;;;;6.45;1.80;;;;;;;15.69;50.31;99771.69;8199493;28;20051;-72
2022/05/17 18:29:51;;;;;;;11.05;2.90;;;;;;;15.48;50.54;99783.25;8199791;28;20051;-72
2022/05/17 18:33:52;;;;;;;9.13;2.75;;;;;;;15.30;50.86;99786.34;8199694;28;20101;-72
2022/05/17 18:37:56;;;;;;;16.92;3.35;;;;;;;15.14;51.54;99800.44;8181707;29;20509;-73
2022/05/17 18:42:00;;;;;;;23.73;5.90;;;;;;;14.98;51.86;99812.13;8199482;28;20142;-72
2022/05/17 18:46:01;;;;;;;13.38;6.03;;;;;;;14.77;52.47;99818.22;8199631;28;20058;-72
2022/05/17 18:50:08;;;;;;;17.90;8.20;;;;;;;14.58;53.25;99825.88;8197422;28;20092;-73
2022/05/17 18:54:13;;;;;;;22.88;8.80;;;;;;;14.40;53.63;99829.66;8197542;28;20051;-73
2022/05/17 18:58:14;;;;;;;16.95;8.75;;;;;;;14.24;54.04;99833.91;8197831;28;20066;-73
2022/05/17 19:02:15;;;;;;;22.48;8.57;;;;;;;14.08;54.49;99838.16;8198931;28;20045;-72
2022/05/17 19:06:17;;;;;;;20.17;7.05;;;;;;;13.90;54.82;99843.53;8197686;28;20142;-73
2022/05/17 19:14:37;;;;;;;10.65;6.07;;;;;;;13.56;55.49;99853.38;8198914;28;20055;-73
2022/05/17 19:18:43;;;;;;;15.40;5.90;;;;;;;13.37;56.27;99856.31;8200540;28;20063;-74
2022/05/17 19:22:45;;;;;;;12.80;6.07;;;;;;;13.20;56.75;99862.41;8196172;28;20056;-72
2022/05/17 19:26:50;;;;;;;17.45;7.70;;;;;;;13.07;57.12;99864.03;8202345;28;20103;-72
2022/05/17 19:30:51;;;;;;;12.63;6.32;;;;;;;12.93;57.44;99863.28;8197650;28;20069;-72
2022/05/17 19:34:54;;;;;;;20.13;6.97;;;;;;;12.81;57.48;99871.13;8191071;28;20055;-72
2022/05/17 19:43:16;;;;;;;15.52;7.60;;;;;;;12.51;58.30;99871.78;8193681;28;20048;-73
2022/05/17 19:47:21;;;;;;;10.77;4.68;;;;;;;12.40;58.65;99883.91;8194652;28;20415;-73
2022/05/17 19:51:23;;;;;;;9.55;3.20;;;;;;;12.51;57.08;99888.84;8184901;29;20071;-73
2022/05/17 19:55:25;;;;;;;12.80;2.55;;;;;;;12.88;54.87;99901.34;8186100;28;20453;-73
2022/05/17 19:59:26;;;;;;;19.90;4.43;;;;;;;13.19;52.52;99914.22;8185259;28;20060;-72
2022/05/17 20:03:28;;;;;;;10.95;3.25;;;;;;;13.33;51.91;99912.28;8189430;28;20063;-72
2022/05/17 20:07:29;;;;;;;12.13;3.50;;;;;;;13.47;50.18;99915.75;8193645;28;20066;-72